createdAt,value
2024-01-26T00:02:05.502Z,5.03
2024-01-26T00:05:13.506Z,4.22
2024-01-26T00:08:20.508Z,7.95
2024-01-26T00:11:32.488Z,2.92
2024-01-26T00:14:38.556Z,5.90
2024-01-26T00:17:47.494Z,5.22
2024-01-26T00:20:53.450Z,4.60
2024-01-26T00:23:59.547Z,6.07
2024-01-26T00:27:05.487Z,6.75
2024-01-26T00:30:13.507Z,4.65
2024-01-26T00:33:21.587Z,4.65
2024-01-26T00:36:28.519Z,6.53
2024-01-26T00:39:34.497Z,7.10
2024-01-26T00:42:40.522Z,5.15
2024-01-26T00:45:40.312Z,4.85
2024-01-26T00:48:42.904Z,4.45
2024-01-26T00:51:49.553Z,5.28
2024-01-26T00:54:55.509Z,3.85
2024-01-26T00:58:02.712Z,5.10
2024-01-26T01:01:09.604Z,6.10
2024-01-26T01:04:17.505Z,5.07
2024-01-26T01:07:23.504Z,4.40
2024-01-26T01:10:30.554Z,5.18
2024-01-26T01:13:37.502Z,3.97
2024-01-26T01:16:43.491Z,6.70
2024-01-26T01:19:52.592Z,4.75
2024-01-26T01:22:58.573Z,4.72
2024-01-26T01:26:05.507Z,5.22
2024-01-26T01:29:11.506Z,5.80
2024-01-26T01:32:17.530Z,6.03
2024-01-26T01:35:25.523Z,4.85
2024-01-26T01:38:32.667Z,5.75
2024-01-26T01:41:40.524Z,6.13
2024-01-26T01:44:47.535Z,6.78
2024-01-26T01:47:53.647Z,4.13
2024-01-26T01:51:01.653Z,4.32
2024-01-26T01:54:09.568Z,4.45
2024-01-26T01:57:16.544Z,4.82
2024-01-26T02:00:27.570Z,5.10
2024-01-26T02:03:34.584Z,6.00
2024-01-26T02:06:42.652Z,7.95
2024-01-26T02:09:49.645Z,5.72
2024-01-26T02:12:55.588Z,5.75
2024-01-26T02:16:02.614Z,5.75
2024-01-26T02:19:09.677Z,8.13
2024-01-26T02:22:12.541Z,4.45
2024-01-26T02:25:20.554Z,4.80
2024-01-26T02:28:27.559Z,7.28
2024-01-26T02:31:33.570Z,9.15
2024-01-26T02:34:39.667Z,6.28
2024-01-26T02:37:46.581Z,4.32
2024-01-26T02:40:55.656Z,5.95
2024-01-26T02:44:02.552Z,5.78
2024-01-26T02:47:09.643Z,4.30
2024-01-26T02:50:15.583Z,4.78
2024-01-26T02:53:21.604Z,4.47
2024-01-26T02:56:30.700Z,5.00
2024-01-26T02:59:37.629Z,5.22
2024-01-26T03:02:43.633Z,3.35
2024-01-26T03:05:50.706Z,5.72
2024-01-26T03:08:58.646Z,4.43
2024-01-26T03:12:07.660Z,12.45
2024-01-26T03:15:15.619Z,20.20
2024-01-26T03:18:22.669Z,23.58
2024-01-26T03:21:29.616Z,22.00
2024-01-26T03:24:36.593Z,26.00
2024-01-26T03:27:45.617Z,27.20
2024-01-26T03:30:54.599Z,24.85
2024-01-26T03:34:01.862Z,26.70
2024-01-26T03:37:09.646Z,24.88
2024-01-26T03:40:15.634Z,26.63
2024-01-26T03:43:25.586Z,24.67
2024-01-26T03:46:32.748Z,29.77
2024-01-26T03:49:38.659Z,23.33
2024-01-26T03:52:44.689Z,26.23
2024-01-26T03:55:50.634Z,29.55
2024-01-26T03:58:57.601Z,24.85
2024-01-26T04:02:03.640Z,25.85
2024-01-26T04:05:09.634Z,24.88
2024-01-26T04:08:16.641Z,24.77
2024-01-26T04:11:22.675Z,25.83
2024-01-26T04:14:30.664Z,23.90
2024-01-26T04:17:36.776Z,22.70
2024-01-26T04:20:43.665Z,22.50
2024-01-26T04:23:49.728Z,27.75
2024-01-26T04:26:56.715Z,23.08
2024-01-26T04:30:04.689Z,27.25
2024-01-26T04:33:11.755Z,21.77
2024-01-26T04:36:19.749Z,23.42
2024-01-26T04:39:25.676Z,23.98
2024-01-26T04:42:32.644Z,25.95
2024-01-26T04:45:39.698Z,21.08
2024-01-26T04:48:45.851Z,19.67
2024-01-26T04:51:52.698Z,26.65
2024-01-26T04:54:58.688Z,22.83
2024-01-26T04:58:04.669Z,23.65
2024-01-26T05:01:13.691Z,26.42
2024-01-26T05:04:20.770Z,22.10
2024-01-26T05:07:27.690Z,20.45
2024-01-26T05:10:33.745Z,23.08
2024-01-26T05:13:39.701Z,19.92
2024-01-26T05:16:46.852Z,20.40
2024-01-26T05:19:54.737Z,15.95
2024-01-26T05:23:00.711Z,18.60
2024-01-26T05:26:00.885Z,19.88
2024-01-26T05:29:01.715Z,21.02
2024-01-26T05:32:09.756Z,17.10
2024-01-26T05:35:16.733Z,22.17
2024-01-26T05:38:23.695Z,21.92
2024-01-26T05:41:29.757Z,20.92
2024-01-26T05:44:35.765Z,20.45
2024-01-26T05:47:43.878Z,18.45
2024-01-26T05:50:50.735Z,17.35
2024-01-26T05:53:56.763Z,19.13
2024-01-26T05:57:02.780Z,17.58
2024-01-26T06:00:08.737Z,16.85
2024-01-26T06:03:16.873Z,16.27
2024-01-26T06:06:23.768Z,18.48
2024-01-26T06:09:30.858Z,19.75
2024-01-26T06:12:36.737Z,16.73
2024-01-26T06:15:42.759Z,16.10
2024-01-26T06:18:50.993Z,21.08
2024-01-26T06:21:58.783Z,20.92
2024-01-26T06:25:07.762Z,20.60
2024-01-26T06:28:13.720Z,15.77
2024-01-26T06:31:21.788Z,13.90
2024-01-26T06:34:30.982Z,17.17
2024-01-26T06:37:38.853Z,14.13
2024-01-26T06:40:46.804Z,15.48
2024-01-26T06:43:59.757Z,18.00
2024-01-26T06:47:05.782Z,18.48
2024-01-26T06:50:15.027Z,20.20
2024-01-26T06:53:21.728Z,17.77
2024-01-26T06:56:27.762Z,25.58
2024-01-26T06:59:33.863Z,25.80
2024-01-26T07:02:39.763Z,22.08
2024-01-26T07:05:47.896Z,22.90
2024-01-26T07:08:54.781Z,25.00
2024-01-26T07:12:01.799Z,23.35
2024-01-26T07:15:07.782Z,19.33
2024-01-26T07:18:15.896Z,20.33
2024-01-26T07:21:28.900Z,21.48
2024-01-26T07:24:35.913Z,23.33
2024-01-26T07:27:42.772Z,21.30
2024-01-26T07:30:48.758Z,20.92
2024-01-26T07:33:54.859Z,21.33
2024-01-26T07:37:01.748Z,20.92
2024-01-26T07:40:07.778Z,21.17
2024-01-26T07:43:14.771Z,21.35
2024-01-26T07:46:20.811Z,17.23
2024-01-26T07:49:28.711Z,19.23
2024-01-26T07:52:39.856Z,15.90
2024-01-26T07:55:45.776Z,22.30
2024-01-26T07:58:51.786Z,21.20
2024-01-26T08:01:59.771Z,21.30
2024-01-26T08:05:05.865Z,22.30
2024-01-26T08:08:12.815Z,19.85
2024-01-26T08:11:18.802Z,20.48
2024-01-26T08:14:24.833Z,20.05
2024-01-26T08:17:31.955Z,23.77
2024-01-26T08:20:39.058Z,18.30
2024-01-26T08:23:47.893Z,15.90
2024-01-26T08:26:54.998Z,14.98
2024-01-26T08:30:02.082Z,18.65
2024-01-26T08:33:09.028Z,20.30
2024-01-26T08:36:16.042Z,20.33
2024-01-26T08:39:24.892Z,19.25
2024-01-26T08:42:30.895Z,17.88
2024-01-26T08:45:58.401Z,16.77
2024-01-26T08:49:09.543Z,16.23
2024-01-26T08:52:18.094Z,17.63
2024-01-26T08:55:32.827Z,16.80
2024-01-26T08:58:39.892Z,17.38
2024-01-26T09:01:48.957Z,20.00
2024-01-26T09:04:59.875Z,16.40
2024-01-26T09:08:25.553Z,16.58
2024-01-26T09:11:41.680Z,15.63
2024-01-26T09:14:50.250Z,17.85
2024-01-26T09:18:00.372Z,16.75
2024-01-26T09:21:13.023Z,17.95
2024-01-26T09:24:21.051Z,17.17
2024-01-26T09:27:32.885Z,16.73
2024-01-26T09:30:39.077Z,20.27
2024-01-26T09:33:47.015Z,17.75
2024-01-26T09:37:04.252Z,14.30
2024-01-26T09:40:13.988Z,16.05
2024-01-26T09:43:24.261Z,13.85
2024-01-26T09:46:38.306Z,14.63
2024-01-26T09:49:49.980Z,15.75
2024-01-26T09:52:57.104Z,17.80
2024-01-26T09:56:13.937Z,19.52
2024-01-26T09:59:26.325Z,15.85
2024-01-26T10:02:35.036Z,15.75
2024-01-26T10:05:42.953Z,16.23
2024-01-26T10:08:56.070Z,16.73
2024-01-26T10:12:10.116Z,15.50
2024-01-26T10:15:28.189Z,15.80
2024-01-26T10:18:37.970Z,15.38
2024-01-26T10:21:49.164Z,15.27
2024-01-26T10:25:12.020Z,15.13
2024-01-26T10:28:26.018Z,15.23
2024-01-26T10:31:38.840Z,17.15
2024-01-26T10:34:54.071Z,18.85
2024-01-26T10:38:05.128Z,24.52
2024-01-26T10:41:45.472Z,16.38
2024-01-26T10:44:48.192Z,14.35
2024-01-26T10:47:59.991Z,13.40
2024-01-26T10:51:06.277Z,20.80
2024-01-26T10:54:14.029Z,18.35
2024-01-26T10:57:23.227Z,16.77
2024-01-26T11:00:31.482Z,14.98
2024-01-26T11:03:41.093Z,15.82
2024-01-26T11:06:48.082Z,18.80
2024-01-26T11:09:55.949Z,26.17
2024-01-26T11:13:01.938Z,20.23
2024-01-26T11:16:09.055Z,18.52
2024-01-26T11:19:18.065Z,20.75
2024-01-26T11:22:26.111Z,15.32
2024-01-26T11:25:41.968Z,20.77
2024-01-26T11:28:48.961Z,17.67
2024-01-26T11:31:54.965Z,19.75
2024-01-26T11:35:03.034Z,15.13
2024-01-26T11:38:09.930Z,15.02
2024-01-26T11:41:16.967Z,25.23
2024-01-26T11:44:26.055Z,22.98
2024-01-26T11:47:34.988Z,17.55
2024-01-26T11:50:46.108Z,17.50
2024-01-26T11:53:53.051Z,16.13
2024-01-26T11:57:00.023Z,22.20
2024-01-26T12:00:07.023Z,22.75
2024-01-26T12:03:14.049Z,16.67
2024-01-26T12:06:24.546Z,18.38
2024-01-26T12:09:31.086Z,17.23
2024-01-26T12:12:38.981Z,15.48
2024-01-26T12:15:47.948Z,16.33
2024-01-26T12:18:58.944Z,17.67
2024-01-26T12:22:08.084Z,16.70
2024-01-26T12:25:15.963Z,16.25
2024-01-26T12:28:24.409Z,18.30
2024-01-26T12:31:41.254Z,14.57
2024-01-26T12:34:48.097Z,16.52
2024-01-26T12:37:58.000Z,16.33
2024-01-26T12:41:05.986Z,18.95
2024-01-26T12:44:12.979Z,18.00
2024-01-26T12:47:19.681Z,17.25
2024-01-26T12:50:20.834Z,17.88
2024-01-26T12:53:24.896Z,12.80
2024-01-26T12:56:32.059Z,22.33
2024-01-26T12:59:38.058Z,19.63
2024-01-26T13:02:46.111Z,20.50
2024-01-26T13:06:01.174Z,19.13
2024-01-26T13:09:10.045Z,19.23
2024-01-26T13:12:19.104Z,18.30
2024-01-26T13:15:26.059Z,13.02
2024-01-26T13:18:34.637Z,17.48
2024-01-26T13:21:45.132Z,13.45
2024-01-26T13:24:54.049Z,17.10
2024-01-26T13:28:00.016Z,13.38
2024-01-26T13:31:06.068Z,14.70
2024-01-26T13:34:12.145Z,13.88
2024-01-26T13:37:20.048Z,11.98
2024-01-26T13:40:29.056Z,16.20
2024-01-26T13:43:39.179Z,19.00
2024-01-26T13:46:46.108Z,13.32
2024-01-26T13:49:53.196Z,15.95
2024-01-26T13:53:00.083Z,16.45
2024-01-26T13:56:08.194Z,14.68
2024-01-26T13:59:16.174Z,11.43
2024-01-26T14:02:22.065Z,19.80
2024-01-26T14:05:28.162Z,16.40
2024-01-26T14:08:34.060Z,12.52
2024-01-26T14:11:42.176Z,11.50
2024-01-26T14:14:49.198Z,13.98
2024-01-26T14:17:57.180Z,16.13
2024-01-26T14:21:00.674Z,12.25
2024-01-26T14:24:00.233Z,18.10
2024-01-26T14:27:09.185Z,14.95
2024-01-26T14:30:20.388Z,12.23
2024-01-26T14:33:40.626Z,9.80
2024-01-26T14:36:48.170Z,19.35
2024-01-26T14:39:54.136Z,12.85
2024-01-26T14:43:03.084Z,17.67
2024-01-26T14:46:09.116Z,11.27
2024-01-26T14:49:15.202Z,16.50
2024-01-26T14:52:23.158Z,11.02
2024-01-26T14:55:34.243Z,13.93
2024-01-26T14:58:44.287Z,13.70
2024-01-26T15:01:52.100Z,10.55
2024-01-26T15:04:59.096Z,14.63
2024-01-26T15:08:06.182Z,14.07
2024-01-26T15:11:16.308Z,11.27
2024-01-26T15:14:25.109Z,11.65
2024-01-26T15:17:33.185Z,10.57
2024-01-26T15:20:40.307Z,12.80
2024-01-26T15:23:47.175Z,15.88
2024-01-26T15:26:53.176Z,12.65
2024-01-26T15:30:04.201Z,11.02
2024-01-26T15:33:12.291Z,7.63
2024-01-26T15:36:20.202Z,14.02
2024-01-26T15:39:30.140Z,14.85
2024-01-26T15:42:45.554Z,9.30
2024-01-26T15:45:55.239Z,11.43
2024-01-26T15:49:12.288Z,9.73
2024-01-26T15:52:26.842Z,8.23
2024-01-26T15:55:36.206Z,11.52
2024-01-26T15:58:42.122Z,12.93
2024-01-26T16:01:51.181Z,12.68
2024-01-26T16:04:57.166Z,8.93
2024-01-26T16:08:03.189Z,11.43
2024-01-26T16:11:10.121Z,16.08
2024-01-26T16:14:16.190Z,14.13
2024-01-26T16:17:27.222Z,15.93
2024-01-26T16:20:28.052Z,11.18
2024-01-26T16:23:27.182Z,13.23
2024-01-26T16:26:34.137Z,10.10
2024-01-26T16:29:40.215Z,10.63
2024-01-26T16:32:47.217Z,18.05
2024-01-26T16:35:54.221Z,8.35
2024-01-26T16:39:01.159Z,15.00
2024-01-26T16:42:08.177Z,10.35
2024-01-26T16:45:14.173Z,16.05
2024-01-26T16:48:23.313Z,14.48
2024-01-26T16:51:30.245Z,11.77
2024-01-26T16:54:36.205Z,18.52
2024-01-26T16:57:44.202Z,13.98
2024-01-26T17:00:50.339Z,12.02
2024-01-26T17:04:00.353Z,12.13
2024-01-26T17:07:07.205Z,11.13
2024-01-26T17:10:14.249Z,9.73
2024-01-26T17:13:20.206Z,17.90
2024-01-26T17:16:27.195Z,17.02
2024-01-26T17:19:35.219Z,13.20
2024-01-26T17:22:45.194Z,11.07
2024-01-26T17:25:45.109Z,12.15
2024-01-26T17:28:45.272Z,13.77
2024-01-26T17:31:53.310Z,11.48
2024-01-26T17:35:01.237Z,14.43
2024-01-26T17:38:07.257Z,8.57
2024-01-26T17:41:18.524Z,9.15
2024-01-26T17:44:30.243Z,8.90
2024-01-26T17:47:36.342Z,16.75
2024-01-26T17:50:45.238Z,12.25
2024-01-26T17:53:51.286Z,10.25
2024-01-26T17:56:57.269Z,12.23
2024-01-26T18:00:05.363Z,10.95
2024-01-26T18:03:13.273Z,13.10
2024-01-26T18:06:32.315Z,19.92
2024-01-26T18:09:38.207Z,10.27
2024-01-26T18:12:44.250Z,6.88
2024-01-26T18:15:50.226Z,10.10
2024-01-26T18:18:58.451Z,11.50
2024-01-26T18:22:10.235Z,13.30
2024-01-26T18:25:16.355Z,8.30
2024-01-26T18:28:23.264Z,7.60
2024-01-26T18:31:23.080Z,12.77
2024-01-26T18:34:24.410Z,10.73
2024-01-26T18:37:33.243Z,9.52
2024-01-26T18:40:39.257Z,14.63
2024-01-26T18:43:45.252Z,14.93
2024-01-26T18:46:51.309Z,14.43
2024-01-26T18:49:58.581Z,12.82
2024-01-26T18:53:07.256Z,9.20
2024-01-26T18:56:15.331Z,10.02
2024-01-26T18:59:15.153Z,18.00
2024-01-26T19:02:15.286Z,11.70
2024-01-26T19:05:23.312Z,10.30
2024-01-26T19:08:33.246Z,9.80
2024-01-26T19:11:40.337Z,15.60
2024-01-26T19:14:39.740Z,10.93
2024-01-26T19:17:47.528Z,18.70
2024-01-26T19:20:54.330Z,13.60
2024-01-26T19:24:04.321Z,14.82
2024-01-26T19:27:11.413Z,14.00
2024-01-26T19:30:19.353Z,13.27
2024-01-26T19:33:25.406Z,14.68
2024-01-26T19:36:30.307Z,16.73
2024-01-26T19:39:31.323Z,11.85
2024-01-26T19:42:39.323Z,10.98
2024-01-26T19:45:45.329Z,10.70
2024-01-26T19:48:53.403Z,11.88
2024-01-26T19:52:00.302Z,9.57
2024-01-26T19:55:08.329Z,13.75
2024-01-26T19:58:15.316Z,10.30
2024-01-26T20:01:25.372Z,13.00
2024-01-26T20:04:31.466Z,13.55
2024-01-26T20:07:39.345Z,11.48
2024-01-26T20:10:50.398Z,8.40
2024-01-26T20:13:56.319Z,8.93
2024-01-26T20:17:02.347Z,16.17
2024-01-26T20:20:09.448Z,19.67
2024-01-26T20:23:18.413Z,9.93
2024-01-26T20:26:28.354Z,16.50
2024-01-26T20:29:35.417Z,12.93
2024-01-26T20:32:41.599Z,13.07
2024-01-26T20:35:50.558Z,15.93
2024-01-26T20:38:59.346Z,16.30
2024-01-26T20:42:09.371Z,10.23
2024-01-26T20:45:15.421Z,11.95
2024-01-26T20:48:21.583Z,13.65
2024-01-26T20:51:28.459Z,12.10
2024-01-26T20:54:36.382Z,17.17
2024-01-26T20:57:46.246Z,10.77
2024-01-26T21:00:53.399Z,14.07
2024-01-26T21:04:00.356Z,13.50
2024-01-26T21:07:06.447Z,15.27
2024-01-26T21:10:07.146Z,10.23
2024-01-26T21:13:09.399Z,13.02
2024-01-26T21:16:17.359Z,11.68
2024-01-26T21:19:23.458Z,15.90
2024-01-26T21:22:30.357Z,9.45
2024-01-26T21:25:36.412Z,13.88
2024-01-26T21:28:45.392Z,15.45
2024-01-26T21:31:51.541Z,16.08
2024-01-26T21:34:58.462Z,14.43
2024-01-26T21:38:06.378Z,15.00
2024-01-26T21:41:13.376Z,10.98
2024-01-26T21:44:25.480Z,7.38
2024-01-26T21:47:34.634Z,13.73
2024-01-26T21:50:42.470Z,16.80
2024-01-26T21:53:53.425Z,14.07
2024-01-26T21:57:03.396Z,16.33
2024-01-26T22:00:12.552Z,21.60
2024-01-26T22:03:21.420Z,17.02
2024-01-26T22:06:28.437Z,12.07
2024-01-26T22:09:35.526Z,13.43
2024-01-26T22:12:36.261Z,16.02
2024-01-26T22:15:38.477Z,13.68
2024-01-26T22:18:46.542Z,17.08
2024-01-26T22:21:54.430Z,14.38
2024-01-26T22:25:01.446Z,14.68
2024-01-26T22:28:08.377Z,13.32
2024-01-26T22:31:15.459Z,14.05
2024-01-26T22:34:22.513Z,11.80
2024-01-26T22:37:29.475Z,10.63
2024-01-26T22:40:36.393Z,17.02
2024-01-26T22:43:42.392Z,12.02
2024-01-26T22:46:49.448Z,10.73
2024-01-26T22:49:56.470Z,13.60
2024-01-26T22:53:02.429Z,18.23
2024-01-26T22:56:09.428Z,13.07
2024-01-26T22:59:15.424Z,12.05
2024-01-26T23:02:24.406Z,9.85
2024-01-26T23:05:31.556Z,15.18
2024-01-26T23:08:39.404Z,14.38
2024-01-26T23:11:48.485Z,11.75
2024-01-26T23:14:49.734Z,12.68
2024-01-26T23:17:52.620Z,10.57
2024-01-26T23:21:00.549Z,15.82
2024-01-26T23:24:10.468Z,15.02
2024-01-26T23:27:17.558Z,9.82
2024-01-26T23:30:24.654Z,14.02
2024-01-26T23:33:33.622Z,14.85
2024-01-26T23:36:40.476Z,15.55
2024-01-26T23:39:47.511Z,13.80
2024-01-26T23:42:53.514Z,15.23
2024-01-26T23:45:59.585Z,14.45
2024-01-26T23:49:07.620Z,15.00
2024-01-26T23:52:14.482Z,16.40
2024-01-26T23:55:21.472Z,14.55
2024-01-26T23:58:27.494Z,16.40
